Time;durP1;ratioP1;P1;durP2;ratioP2;P2;SDS_P1;SDS_P2;PMS_P1;PMS_P2;Temp;Humidity;BMP_temperature;BMP_pressure;BME280_temperature;BME280_humidity;BME280_pressure;Samples;Min_cycle;Max_cycle;Signal;HPM_P1;HPM_P2
2022/12/23 00:01:23;;;;;;;1.90;1.77;;;21.50;50.20;;;;;;6062294;23;20014;-66
2022/12/23 00:03:48;;;;;;;1.48;1.38;;;21.50;50.20;;;;;;6087442;23;20061;-66
2022/12/23 00:06:16;;;;;;;1.67;1.58;;;21.50;50.30;;;;;;6089125;23;20344;-66
2022/12/23 00:08:42;;;;;;;1.58;1.48;;;21.50;50.20;;;;;;6088810;23;20097;-66
2022/12/23 00:11:27;;;;;;;1.70;1.60;;;21.40;50.10;;;;;;6087830;23;20485;-66
2022/12/23 00:16:37;;;;;;;1.98;1.88;;;21.40;50.30;;;;;;6086472;23;20061;-66
2022/12/23 00:19:03;;;;;;;1.90;1.80;;;21.40;50.30;;;;;;6088592;23;20077;-66
2022/12/23 00:21:29;;;;;;;1.90;1.73;;;21.40;50.30;;;;;;6087262;23;20022;-66
2022/12/23 00:23:55;;;;;;;1.63;1.52;;;21.40;50.30;;;;;;6086818;23;20026;-66
2022/12/23 00:26:23;;;;;;;2.00;1.90;;;21.30;50.20;;;;;;6086814;23;20011;-65
2022/12/23 00:28:49;;;;;;;1.35;1.25;;;21.30;50.20;;;;;;6086174;23;20143;-65
2022/12/23 00:31:17;;;;;;;1.70;1.60;;;21.30;50.20;;;;;;6088205;23;20050;-65
2022/12/23 00:33:45;;;;;;;1.90;1.80;;;21.30;50.20;;;;;;6063067;23;20011;-67
2022/12/23 00:36:19;;;;;;;1.70;1.60;;;21.30;50.20;;;;;;6086646;23;20470;-66
2022/12/23 00:44:14;;;;;;;1.55;1.45;;;21.20;50.20;;;;;;6087135;23;20094;-66
2022/12/23 00:46:40;;;;;;;1.40;1.30;;;21.20;50.30;;;;;;6063315;23;20026;-66
2022/12/23 00:51:51;;;;;;;1.70;1.60;;;21.20;50.40;;;;;;6086474;23;20081;-66
2022/12/23 00:54:17;;;;;;;1.60;1.50;;;21.20;50.40;;;;;;6086550;23;20018;-66
2022/12/23 00:56:43;;;;;;;1.70;1.60;;;21.10;50.30;;;;;;6088040;23;20014;-66
2022/12/23 00:59:09;;;;;;;1.55;1.45;;;21.10;50.40;;;;;;6061033;23;20021;-67
2022/12/23 01:07:05;;;;;;;1.50;1.40;;;21.10;50.30;;;;;;6084313;23;20023;-67
2022/12/23 01:09:30;;;;;;;1.73;1.63;;;21.10;50.40;;;;;;6085894;23;20557;-66
2022/12/23 01:11:56;;;;;;;1.60;1.50;;;21.10;50.30;;;;;;6084310;23;20093;-67
2022/12/23 01:14:22;;;;;;;1.70;1.60;;;21.10;50.40;;;;;;6086083;23;20479;-66
2022/12/23 01:16:48;;;;;;;1.42;1.33;;;21.10;50.40;;;;;;6084463;23;20447;-66
2022/12/23 01:19:14;;;;;;;1.77;1.67;;;21.10;50.30;;;;;;6086238;23;20454;-67
2022/12/23 01:21:40;;;;;;;1.52;1.42;;;21.10;50.40;;;;;;6060759;23;20121;-67
2022/12/23 01:24:06;;;;;;;1.80;1.70;;;21.00;50.20;;;;;;6086113;23;20014;-66
2022/12/23 01:26:31;;;;;;;1.73;1.55;;;21.00;50.30;;;;;;6061184;23;20040;-65
2022/12/23 01:28:58;;;;;;;2.17;1.60;;;21.00;50.20;;;;;;6061953;23;20211;-65
2022/12/23 01:31:25;;;;;;;1.88;1.77;;;21.00;50.30;;;;;;6085135;23;20407;-66
2022/12/23 01:33:52;;;;;;;2.28;2.08;;;21.00;50.30;;;;;;6087104;23;20022;-66
2022/12/23 01:36:18;;;;;;;2.42;1.90;;;21.00;50.30;;;;;;6061533;23;20030;-66
2022/12/23 01:38:44;;;;;;;2.22;2.00;;;20.90;50.20;;;;;;6085129;23;20150;-66
2022/12/23 01:44:47;;;;;;;2.17;1.98;;;20.90;50.30;;;;;;6087289;23;20033;-66
2022/12/23 01:47:25;;;;;;;2.20;2.00;;;20.90;50.20;;;;;;6085303;23;20025;-67
2022/12/23 01:50:00;;;;;;;2.60;2.00;;;20.90;50.30;;;;;;6062778;23;20018;-66
2022/12/23 01:52:26;;;;;;;2.05;1.90;;;20.90;50.40;;;;;;6084694;23;20010;-66
2022/12/23 01:54:53;;;;;;;2.28;2.08;;;20.90;50.40;;;;;;6060979;23;20023;-67
2022/12/23 01:57:19;;;;;;;1.88;1.77;;;20.80;50.30;;;;;;6085453;23;20077;-66
2022/12/23 02:05:15;;;;;;;2.10;1.90;;;20.80;50.30;;;;;;6087128;23;20022;-65
2022/12/23 02:11:05;;;;;;;2.05;1.85;;;20.80;50.30;;;;;;6085621;23;20018;-66
2022/12/23 02:16:51;;;;;;;2.08;1.98;;;20.80;50.30;;;;;;6086205;23;20705;-67
2022/12/23 02:19:35;;;;;;;2.00;1.80;;;20.70;50.30;;;;;;6086315;23;20021;-66
2022/12/23 02:22:42;;;;;;;2.22;2.03;;;20.70;50.30;;;;;;6086667;23;20030;-66
2022/12/23 02:25:24;;;;;;;2.00;1.90;;;20.70;50.20;;;;;;6084432;23;20014;-67
2022/12/23 02:27:59;;;;;;;2.00;1.73;;;20.70;50.30;;;;;;6059653;23;20026;-66
2022/12/23 02:30:44;;;;;;;2.33;1.92;;;20.70;50.30;;;;;;6086662;23;20017;-65
2022/12/23 02:33:20;;;;;;;1.73;1.52;;;20.70;50.30;;;;;;6087228;23;20296;-67
2022/12/23 02:36:07;;;;;;;1.70;1.58;;;20.70;50.30;;;;;;6084738;23;20033;-66
2022/12/23 02:38:55;;;;;;;1.60;1.50;;;20.70;50.30;;;;;;6084532;23;20023;-66
2022/12/23 02:41:39;;;;;;;1.60;1.50;;;20.70;50.30;;;;;;6083776;23;20024;-67
2022/12/23 02:44:43;;;;;;;2.03;1.70;;;20.70;50.20;;;;;;6085640;23;20073;-66
2022/12/23 02:47:20;;;;;;;1.60;1.50;;;20.60;50.20;;;;;;6049099;23;20655;-67
2022/12/23 02:50:00;;;;;;;1.38;1.20;;;20.60;50.30;;;;;;6085561;23;20694;-66
2022/12/23 02:52:30;;;;;;;1.33;1.23;;;20.60;50.20;;;;;;6084704;23;20018;-66
2022/12/23 02:55:05;;;;;;;1.17;1.10;;;20.60;50.30;;;;;;6085140;23;20019;-66
2022/12/23 02:57:36;;;;;;;1.83;1.45;;;20.60;50.30;;;;;;6084699;23;20050;-66
2022/12/23 03:00:03;;;;;;;1.63;1.30;;;20.60;50.20;;;;;;6085962;23;20065;-66
2022/12/23 03:02:34;;;;;;;2.00;1.48;;;20.60;50.30;;;;;;6086441;23;20022;-67
2022/12/23 03:05:00;;;;;;;1.30;1.20;;;20.60;50.30;;;;;;6061571;23;20014;-66
2022/12/23 03:07:40;;;;;;;1.48;1.38;;;20.50;50.20;;;;;;6062009;23;20061;-65
2022/12/23 03:10:27;;;;;;;1.50;1.40;;;20.60;50.20;;;;;;6087990;23;20117;-66
2022/12/23 03:13:11;;;;;;;1.42;1.33;;;20.60;50.20;;;;;;6086572;23;20444;-66
2022/12/23 03:15:51;;;;;;;1.60;1.50;;;20.50;50.10;;;;;;6089460;23;20026;-66
2022/12/23 03:18:24;;;;;;;1.55;1.33;;;20.50;50.20;;;;;;6086654;23;20367;-66
2022/12/23 03:20:55;;;;;;;1.50;1.40;;;20.60;50.20;;;;;;6087154;23;20026;-66
2022/12/23 03:23:33;;;;;;;1.25;1.13;;;20.50;50.20;;;;;;6086524;23;20734;-66
2022/12/23 03:26:02;;;;;;;1.25;1.15;;;20.50;50.10;;;;;;6086656;23;20021;-65
2022/12/23 03:28:36;;;;;;;1.08;1.08;;;20.50;50.20;;;;;;6086987;23;20026;-66
2022/12/23 03:31:05;;;;;;;1.17;1.10;;;20.50;50.10;;;;;;6087041;23;20819;-65
2022/12/23 03:33:35;;;;;;;1.55;1.45;;;20.50;50.20;;;;;;6088510;23;20348;-67
2022/12/23 03:36:07;;;;;;;1.33;1.23;;;20.50;50.20;;;;;;6087423;23;20022;-66
2022/12/23 03:38:37;;;;;;;1.40;1.30;;;20.50;50.10;;;;;;6088393;23;20026;-67
2022/12/23 03:41:08;;;;;;;1.08;1.05;;;20.50;50.10;;;;;;6086963;23;20073;-67
2022/12/23 03:43:40;;;;;;;1.45;1.25;;;20.50;50.20;;;;;;6087180;23;20101;-67
2022/12/23 03:46:14;;;;;;;1.40;1.30;;;20.50;50.10;;;;;;6087892;23;20017;-66
2022/12/23 03:48:55;;;;;;;1.20;1.10;;;20.50;50.10;;;;;;6086088;23;20035;-66
2022/12/23 03:51:23;;;;;;;;;;;20.50;50.00;;;;;;6087093;23;20014;-68
2022/12/23 03:53:55;;;;;;;1.10;1.08;;;20.40;50.00;;;;;;6063071;23;19924;-66
2022/12/23 03:56:28;;;;;;;1.08;1.08;;;20.40;50.20;;;;;;6085157;23;20057;-66
2022/12/23 03:58:58;;;;;;;1.30;1.20;;;20.40;50.10;;;;;;6086563;23;20038;-66
2022/12/23 04:01:54;;;;;;;1.42;1.33;;;20.40;50.10;;;;;;6086510;23;20015;-65
2022/12/23 04:04:45;;;;;;;1.00;0.98;;;20.40;50.10;;;;;;6085905;23;20022;-66
2022/12/23 04:07:22;;;;;;;1.30;1.20;;;20.40;50.10;;;;;;6087405;23;20313;-66
2022/12/23 04:09:51;;;;;;;1.15;1.02;;;20.40;50.00;;;;;;6088858;23;20010;-67
2022/12/23 04:12:17;;;;;;;1.75;1.23;;;20.40;50.10;;;;;;6086204;23;20071;-66
2022/12/23 04:14:49;;;;;;;1.55;1.30;;;20.30;50.00;;;;;;6085579;23;20022;-66
2022/12/23 04:17:16;;;;;;;1.10;1.00;;;20.40;50.00;;;;;;6087478;23;20026;-66
2022/12/23 04:19:44;;;;;;;1.33;1.23;;;20.40;50.00;;;;;;6088683;23;20018;-66
2022/12/23 04:22:11;;;;;;;1.50;1.40;;;20.30;49.90;;;;;;6086470;23;20018;-66
2022/12/23 04:24:37;;;;;;;1.20;1.20;;;20.40;50.70;;;;;;6062571;23;20022;-66
2022/12/23 04:27:02;;;;;;;2.65;1.20;;;20.30;49.90;;;;;;6087269;23;20025;-66
2022/12/23 04:29:28;;;;;;;1.17;1.15;;;20.30;49.90;;;;;;6086754;23;20015;-66
2022/12/23 04:31:54;;;;;;;1.27;1.17;;;20.30;49.90;;;;;;6085688;23;20018;-66
2022/12/23 04:34:19;;;;;;;1.33;1.23;;;20.30;50.60;;;;;;6086011;23;20069;-65
2022/12/23 04:36:45;;;;;;;1.33;1.23;;;20.30;49.90;;;;;;6061562;23;20054;-65
2022/12/23 04:39:12;;;;;;;1.75;1.63;;;20.30;49.80;;;;;;6087010;23;20030;-65
2022/12/23 04:41:37;;;;;;;1.27;1.00;;;20.30;49.80;;;;;;6061823;23;20073;-66
2022/12/23 04:44:03;;;;;;;1.80;1.70;;;20.30;49.80;;;;;;6062542;23;20025;-65
2022/12/23 04:46:29;;;;;;;1.30;1.20;;;20.30;49.80;;;;;;6085810;23;20443;-65
2022/12/23 04:48:54;;;;;;;1.27;1.17;;;20.30;49.80;;;;;;6086527;23;20544;-65
2022/12/23 04:51:20;;;;;;;1.48;1.38;;;20.30;49.80;;;;;;6087906;23;20742;-66
2022/12/23 04:53:46;;;;;;;1.50;1.40;;;20.30;49.70;;;;;;6088535;23;20014;-66
2022/12/23 04:56:12;;;;;;;1.27;1.17;;;20.30;49.70;;;;;;6086107;23;20414;-66
2022/12/23 04:58:38;;;;;;;1.15;1.08;;;20.30;49.80;;;;;;6085897;23;20029;-66
2022/12/23 05:01:09;;;;;;;1.35;1.25;;;20.30;49.80;;;;;;6085088;23;20018;-66
2022/12/23 05:03:35;;;;;;;1.73;1.63;;;20.30;49.80;;;;;;6088732;23;20130;-65
2022/12/23 05:06:01;;;;;;;1.52;1.42;;;20.30;49.70;;;;;;6085552;23;20022;-65
2022/12/23 05:08:27;;;;;;;1.30;1.20;;;20.20;49.70;;;;;;6085501;23;20029;-65
2022/12/23 05:10:52;;;;;;;1.48;1.30;;;20.30;49.80;;;;;;6086434;23;20336;-65
2022/12/23 05:13:18;;;;;;;1.60;1.50;;;20.20;49.60;;;;;;6086372;23;20018;-65
2022/12/23 05:15:45;;;;;;;1.63;1.52;;;20.20;49.60;;;;;;6063236;23;20024;-65
2022/12/23 05:18:11;;;;;;;1.50;1.40;;;20.20;49.70;;;;;;6084929;23;20022;-65
2022/12/23 05:20:37;;;;;;;1.40;1.30;;;20.20;49.70;;;;;;6086079;23;20060;-65
2022/12/23 05:23:03;;;;;;;1.20;1.10;;;20.20;49.60;;;;;;6085906;23;20404;-66
2022/12/23 05:25:28;;;;;;;1.30;1.20;;;20.20;49.60;;;;;;6086548;23;20014;-66
2022/12/23 05:27:54;;;;;;;1.17;1.15;;;20.20;49.70;;;;;;6060800;23;20022;-65
2022/12/23 05:30:20;;;;;;;1.40;1.30;;;20.20;49.60;;;;;;6085343;23;20014;-65
2022/12/23 05:32:45;;;;;;;1.50;1.40;;;20.20;49.60;;;;;;6087532;23;20046;-65
2022/12/23 05:35:11;;;;;;;1.38;1.27;;;20.20;49.70;;;;;;6086390;23;20063;-65
2022/12/23 05:37:37;;;;;;;3.47;1.33;;;20.20;49.60;;;;;;6060834;23;20041;-66
2022/12/23 05:40:03;;;;;;;1.58;1.40;;;20.20;49.60;;;;;;6087939;23;20022;-65
2022/12/23 05:42:29;;;;;;;1.40;1.30;;;20.20;49.60;;;;;;6087683;23;20085;-65
2022/12/23 05:44:54;;;;;;;1.33;1.23;;;20.10;49.60;;;;;;6086322;23;20515;-66
2022/12/23 05:47:20;;;;;;;2.03;1.30;;;20.10;49.60;;;;;;6086950;23;20530;-66
2022/12/23 05:49:45;;;;;;;1.20;1.10;;;20.10;49.50;;;;;;6086062;23;20022;-65
2022/12/23 05:52:11;;;;;;;1.60;1.50;;;20.10;49.50;;;;;;6085872;23;20025;-65
2022/12/23 05:54:37;;;;;;;1.35;1.25;;;20.10;49.60;;;;;;6086266;23;20726;-65
2022/12/23 05:57:02;;;;;;;1.48;1.38;;;20.10;49.50;;;;;;6085478;23;20030;-65
2022/12/23 05:59:28;;;;;;;1.75;1.65;;;20.10;49.50;;;;;;6085898;23;20061;-65
2022/12/23 06:01:54;;;;;;;1.38;1.27;;;20.10;49.50;;;;;;6086045;23;20050;-64
2022/12/23 06:04:19;;;;;;;1.40;1.25;;;20.10;49.50;;;;;;6087522;23;20339;-65
2022/12/23 06:06:45;;;;;;;2.55;1.45;;;20.10;49.50;;;;;;6087365;23;20021;-65
2022/12/23 06:09:11;;;;;;;1.30;1.20;;;20.10;49.50;;;;;;6062440;23;20440;-66
2022/12/23 06:11:37;;;;;;;1.58;1.17;;;20.10;49.50;;;;;;6085672;23;20732;-65
2022/12/23 06:14:02;;;;;;;2.83;1.25;;;20.10;49.50;;;;;;6062680;23;20270;-65
2022/12/23 06:16:28;;;;;;;1.20;1.10;;;20.10;49.50;;;;;;6087386;23;20014;-65
2022/12/23 06:18:55;;;;;;;1.58;1.48;;;20.10;49.50;;;;;;6062751;23;20045;-65
2022/12/23 06:21:21;;;;;;;1.27;1.17;;;20.10;49.50;;;;;;6061760;23;20022;-65
2022/12/23 06:23:46;;;;;;;1.30;1.20;;;20.10;49.50;;;;;;6086975;23;20022;-65
2022/12/23 06:26:12;;;;;;;1.65;1.55;;;20.00;49.40;;;;;;6062385;23;20788;-65
2022/12/23 06:28:38;;;;;;;1.40;1.30;;;20.10;49.40;;;;;;6085700;23;20520;-68
2022/12/23 06:31:04;;;;;;;1.70;1.60;;;20.00;49.40;;;;;;6085322;23;20405;-65
2022/12/23 06:33:30;;;;;;;1.65;1.35;;;20.10;49.40;;;;;;6085836;23;20046;-66
2022/12/23 06:35:55;;;;;;;2.97;1.42;;;20.10;49.40;;;;;;6084780;23;20018;-65
2022/12/23 06:38:21;;;;;;;6.30;2.05;;;20.00;49.40;;;;;;6079267;23;20073;-65
2022/12/23 06:40:47;;;;;;;3.88;1.48;;;20.00;49.60;;;;;;6059772;23;20022;-65
2022/12/23 06:43:12;;;;;;;3.22;1.33;;;20.00;49.70;;;;;;6085354;23;20026;-65
2022/12/23 06:45:39;;;;;;;1.98;1.30;;;20.00;49.70;;;;;;6061627;23;20022;-65
2022/12/23 06:48:05;;;;;;;3.42;1.52;;;20.00;49.80;;;;;;6061170;23;20045;-65
2022/12/23 06:50:31;;;;;;;6.30;1.50;;;20.00;49.90;;;;;;6084449;23;20018;-65
2022/12/23 06:52:57;;;;;;;4.15;1.25;;;20.00;49.90;;;;;;6085845;23;20018;-65
2022/12/23 06:55:23;;;;;;;5.10;1.50;;;20.00;49.80;;;;;;6061880;23;20407;-65
2022/12/23 06:57:48;;;;;;;3.72;1.83;;;20.00;49.90;;;;;;6087971;23;20446;-65
2022/12/23 07:00:14;;;;;;;2.42;1.70;;;20.00;49.90;;;;;;6088439;23;20018;-65
2022/12/23 07:02:40;;;;;;;3.08;1.70;;;20.00;49.90;;;;;;6084348;23;20098;-65
2022/12/23 07:05:06;;;;;;;4.68;1.52;;;20.00;50.00;;;;;;6084756;23;20026;-65
2022/12/23 07:07:32;;;;;;;2.30;1.40;;;20.20;49.90;;;;;;6087167;23;20247;-64
2022/12/23 07:09:58;;;;;;;1.60;1.20;;;20.80;48.90;;;;;;6087459;23;20605;-65
2022/12/23 07:12:23;;;;;;;1.23;1.13;;;21.60;47.40;;;;;;6060681;23;20145;-65
2022/12/23 07:14:49;;;;;;;1.58;1.00;;;22.30;46.00;;;;;;6061344;23;20023;-66
2022/12/23 07:17:15;;;;;;;1.60;0.90;;;22.90;44.90;;;;;;6085184;23;20046;-65
2022/12/23 07:19:41;;;;;;;2.33;0.93;;;23.20;44.20;;;;;;6061366;23;20018;-66
2022/12/23 07:22:07;;;;;;;1.67;1.10;;;23.30;43.90;;;;;;6085058;23;20392;-65
2022/12/23 07:24:33;;;;;;;1.23;0.95;;;23.30;43.90;;;;;;6085956;23;20097;-65
2022/12/23 07:26:58;;;;;;;1.02;1.00;;;23.30;44.00;;;;;;6086499;23;20514;-65
2022/12/23 07:29:24;;;;;;;1.77;0.88;;;23.20;44.00;;;;;;6086856;23;20473;-65
2022/12/23 07:31:49;;;;;;;1.20;0.82;;;23.20;44.00;;;;;;6084219;23;20090;-65
2022/12/23 07:34:15;;;;;;;0.73;0.73;;;23.20;44.10;;;;;;6084750;23;20018;-66
2022/12/23 07:36:41;;;;;;;1.45;0.98;;;23.10;44.30;;;;;;6082948;23;20033;-65
2022/12/23 07:39:07;;;;;;;1.10;1.00;;;22.90;44.50;;;;;;6085542;23;20018;-65
2022/12/23 07:41:32;;;;;;;2.03;1.00;;;22.80;44.80;;;;;;6084277;23;20026;-63
2022/12/23 07:43:58;;;;;;;0.98;0.88;;;22.70;45.00;;;;;;6084637;23;20015;-62
2022/12/23 07:46:23;;;;;;;0.88;0.88;;;22.70;45.20;;;;;;6084486;23;20457;-63
2022/12/23 07:48:49;;;;;;;1.15;1.00;;;22.60;45.30;;;;;;6060773;23;20439;-63
2022/12/23 07:51:15;;;;;;;1.65;0.95;;;22.60;45.20;;;;;;6083762;23;20014;-62
2022/12/23 07:53:40;;;;;;;0.88;0.75;;;22.60;45.20;;;;;;6087673;23;20453;-61
2022/12/23 07:56:06;;;;;;;2.45;0.85;;;22.50;45.20;;;;;;6088725;23;20462;-62
2022/12/23 07:58:32;;;;;;;0.60;0.60;;;22.50;45.20;;;;;;6085313;23;20022;-62
2022/12/23 08:01:02;;;;;;;0.90;0.90;;;22.50;45.20;;;;;;6087637;23;20053;-65
2022/12/23 08:03:28;;;;;;;3.60;0.93;;;22.50;45.20;;;;;;6087857;23;20022;-64
2022/12/23 08:06:05;;;;;;;0.90;0.90;;;22.50;45.30;;;;;;6086836;23;20073;-65
2022/12/23 08:08:32;;;;;;;1.75;0.80;;;22.50;45.30;;;;;;6086027;23;20011;-64
2022/12/23 08:10:59;;;;;;;1.10;0.90;;;22.50;45.40;;;;;;6085487;23;20018;-66
2022/12/23 08:13:25;;;;;;;1.90;1.10;;;22.50;45.40;;;;;;6086209;23;20042;-66
2022/12/23 08:15:54;;;;;;;0.80;0.73;;;22.50;45.40;;;;;;6062640;23;20023;-67
2022/12/23 08:18:20;;;;;;;1.00;0.80;;;22.50;45.40;;;;;;6088995;23;20037;-67
2022/12/23 08:20:53;;;;;;;1.02;0.93;;;22.50;45.40;;;;;;6086000;23;20435;-66
2022/12/23 08:23:19;;;;;;;0.82;0.80;;;22.50;45.30;;;;;;6062659;23;20022;-66
2022/12/23 08:25:45;;;;;;;2.72;0.80;;;22.50;45.20;;;;;;6088881;23;20041;-66
2022/12/23 08:28:10;;;;;;;2.55;1.05;;;22.50;45.20;;;;;;6063091;23;20018;-66
2022/12/23 08:30:36;;;;;;;1.33;0.90;;;22.50;45.20;;;;;;6063189;23;20097;-66
2022/12/23 08:33:01;;;;;;;1.95;0.90;;;22.50;45.20;;;;;;6086529;23;20327;-66
2022/12/23 08:35:27;;;;;;;0.80;0.80;;;22.50;45.10;;;;;;6086871;23;20106;-66
2022/12/23 08:37:53;;;;;;;2.58;0.85;;;22.50;45.00;;;;;;6061466;23;20333;-62
2022/12/23 08:40:18;;;;;;;1.38;0.80;;;22.50;45.00;;;;;;6084829;23;20097;-65
2022/12/23 08:42:44;;;;;;;1.70;0.90;;;22.50;45.10;;;;;;6084259;23;20397;-66
2022/12/23 08:45:11;;;;;;;1.15;0.90;;;22.50;45.10;;;;;;6043249;23;20506;-65
2022/12/23 08:47:37;;;;;;;2.40;1.00;;;22.50;45.10;;;;;;6058385;23;20112;-65
2022/12/23 08:50:03;;;;;;;2.58;1.05;;;22.50;45.10;;;;;;6084339;23;20134;-64
2022/12/23 08:52:28;;;;;;;1.13;1.02;;;22.50;45.20;;;;;;6079553;23;20010;-65
2022/12/23 08:54:54;;;;;;;0.98;0.93;;;22.50;45.30;;;;;;6081305;23;20621;-65
2022/12/23 08:57:20;;;;;;;2.40;0.77;;;22.50;45.40;;;;;;6086280;23;20461;-66
2022/12/23 08:59:45;;;;;;;1.70;1.00;;;22.50;45.50;;;;;;6086675;23;20014;-65
2022/12/23 09:02:11;;;;;;;4.13;0.93;;;22.60;45.60;;;;;;6085485;23;20053;-65
2022/12/23 09:04:37;;;;;;;2.88;1.23;;;22.60;45.60;;;;;;6082305;23;20023;-64
2022/12/23 09:07:03;;;;;;;6.38;1.33;;;22.60;45.70;;;;;;6083394;23;20022;-64
2022/12/23 09:09:28;;;;;;;3.33;0.82;;;22.60;45.70;;;;;;6084297;23;20649;-65
2022/12/23 09:11:54;;;;;;;2.28;0.93;;;22.60;45.80;;;;;;6081936;23;20345;-65
2022/12/23 09:14:20;;;;;;;1.80;0.93;;;22.60;45.90;;;;;;6082393;23;20018;-65
2022/12/23 09:16:48;;;;;;;2.45;0.90;;;22.50;46.00;;;;;;6081182;23;20641;-68
2022/12/23 09:19:14;;;;;;;1.33;1.20;;;22.60;46.00;;;;;;6059068;23;20077;-66
2022/12/23 09:21:40;;;;;;;3.33;1.00;;;22.60;46.00;;;;;;6083274;23;20018;-65
2022/12/23 09:24:06;;;;;;;2.10;0.93;;;22.60;46.00;;;;;;6060337;23;20015;-64
2022/12/23 09:26:32;;;;;;;3.22;1.15;;;22.60;46.10;;;;;;6060115;23;20053;-64
2022/12/23 09:28:58;;;;;;;1.25;0.98;;;22.60;46.10;;;;;;6059055;23;20049;-60
2022/12/23 09:31:25;;;;;;;1.02;0.98;;;22.60;46.20;;;;;;6083704;23;20128;-64
2022/12/23 09:33:52;;;;;;;2.90;1.15;;;22.60;46.20;;;;;;6061079;23;20082;-64
2022/12/23 09:36:19;;;;;;;2.40;0.95;;;22.60;46.20;;;;;;6082415;23;20519;-65
2022/12/23 09:38:45;;;;;;;1.67;1.10;;;22.60;46.20;;;;;;6059732;23;20354;-63
2022/12/23 09:41:17;;;;;;;1.35;0.90;;;22.60;46.20;;;;;;6058769;23;20060;-62
2022/12/23 09:43:45;;;;;;;2.45;0.98;;;22.60;46.30;;;;;;6058354;23;20022;-62
2022/12/23 09:46:19;;;;;;;1.92;1.10;;;22.60;46.40;;;;;;6060745;23;20443;-61
2022/12/23 09:49:08;;;;;;;2.75;1.20;;;22.60;46.60;;;;;;6059696;23;20025;-63
2022/12/23 09:51:34;;;;;;;3.22;1.13;;;22.60;47.00;;;;;;6060379;23;20459;-65
2022/12/23 09:54:21;;;;;;;1.05;0.80;;;22.60;47.10;;;;;;6059737;23;20025;-63
2022/12/23 09:56:51;;;;;;;2.55;0.90;;;22.70;47.30;;;;;;6082767;23;20018;-64
2022/12/23 09:59:28;;;;;;;1.77;1.00;;;22.70;47.30;;;;;;6061111;23;20081;-62
2022/12/23 10:02:10;;;;;;;1.98;0.90;;;22.70;47.20;;;;;;6059863;23;20022;-62
2022/12/23 10:05:03;;;;;;;1.48;1.05;;;22.70;47.30;;;;;;6085067;23;20061;-61
2022/12/23 10:07:50;;;;;;;2.58;0.88;;;22.70;47.30;;;;;;6083430;23;20216;-63
2022/12/23 10:10:22;;;;;;;3.53;0.95;;;22.70;47.40;;;;;;6059884;23;20074;-64
2022/12/23 10:12:51;;;;;;;6.55;1.13;;;22.70;47.40;;;;;;6060391;23;20014;-62
2022/12/23 10:15:36;;;;;;;6.03;1.10;;;22.70;47.20;;;;;;6083746;23;20328;-62
2022/12/23 10:18:16;;;;;;;2.35;1.10;;;22.70;47.10;;;;;;6059223;23;20029;-62
2022/12/23 10:21:06;;;;;;;2.50;1.17;;;22.70;47.10;;;;;;6085595;23;20025;-64
2022/12/23 10:23:48;;;;;;;4.85;1.20;;;22.70;47.10;;;;;;6061549;23;20919;-61
2022/12/23 10:26:45;;;;;;;3.28;1.10;;;22.70;47.00;;;;;;6060775;23;20018;-60
2022/12/23 10:29:18;;;;;;;3.08;1.05;;;22.70;47.00;;;;;;6059989;23;20015;-64
2022/12/23 10:32:03;;;;;;;2.33;1.00;;;22.60;46.90;;;;;;6084112;23;20463;-61
2022/12/23 10:34:53;;;;;;;2.17;1.17;;;22.60;46.80;;;;;;6060740;23;20018;-61
2022/12/23 10:37:25;;;;;;;3.13;1.17;;;22.60;46.80;;;;;;6059770;23;20022;-61
2022/12/23 10:40:19;;;;;;;2.70;1.08;;;22.60;46.80;;;;;;6059581;23;20018;-62
2022/12/23 10:42:56;;;;;;;18.45;1.90;;;22.60;46.90;;;;;;6083857;23;20015;-62
2022/12/23 10:45:50;;;;;;;9.63;1.30;;;22.60;47.00;;;;;;6059098;23;20441;-62
2022/12/23 10:48:54;;;;;;;5.30;1.25;;;22.60;46.90;;;;;;6082036;23;20015;-63
2022/12/23 10:51:49;;;;;;;4.82;1.13;;;22.60;46.90;;;;;;6083368;23;20518;-62
2022/12/23 10:54:24;;;;;;;10.27;1.63;;;22.70;46.80;;;;;;6059369;23;20410;-63
2022/12/23 10:56:51;;;;;;;5.97;1.38;;;22.70;46.90;;;;;;6059890;23;20026;-62
2022/12/23 10:59:23;;;;;;;3.00;1.05;;;22.70;46.90;;;;;;6037042;23;20022;-61
2022/12/23 11:02:08;;;;;;;4.35;1.40;;;22.70;46.90;;;;;;6060558;23;20098;-61
2022/12/23 11:04:36;;;;;;;2.95;1.60;;;22.70;46.90;;;;;;6060388;23;20022;-62
2022/12/23 11:07:03;;;;;;;2.90;1.55;;;22.70;46.90;;;;;;6058498;23;20015;-61
2022/12/23 11:09:42;;;;;;;2.80;1.10;;;22.70;47.00;;;;;;6071542;23;20020;-61
2022/12/23 11:12:10;;;;;;;5.13;1.10;;;22.70;46.90;;;;;;6084331;23;20050;-62
2022/12/23 11:14:53;;;;;;;3.40;1.27;;;22.70;47.00;;;;;;6084686;23;20014;-61
2022/12/23 11:17:28;;;;;;;1.88;1.10;;;22.70;46.90;;;;;;6059122;23;20021;-63
2022/12/23 11:20:17;;;;;;;1.38;1.23;;;22.70;46.90;;;;;;6082414;23;20040;-63
2022/12/23 11:22:55;;;;;;;1.77;1.05;;;22.70;46.70;;;;;;6057954;23;20029;-61
2022/12/23 11:25:37;;;;;;;2.58;1.30;;;22.70;46.80;;;;;;6084172;23;20459;-62
2022/12/23 11:28:09;;;;;;;4.68;1.63;;;22.70;46.80;;;;;;6083777;23;20022;-62
2022/12/23 11:30:46;;;;;;;2.33;1.30;;;22.70;46.80;;;;;;6059911;23;20014;-63
2022/12/23 11:33:24;;;;;;;3.55;1.23;;;22.70;46.90;;;;;;6084467;23;20918;-63
2022/12/23 11:36:06;;;;;;;3.28;1.42;;;22.70;46.70;;;;;;6058374;23;20125;-62
2022/12/23 11:38:35;;;;;;;6.15;1.48;;;22.70;46.70;;;;;;6061248;23;20026;-65
2022/12/23 11:41:02;;;;;;;2.78;1.45;;;22.70;46.80;;;;;;6061310;23;20050;-64
2022/12/23 11:43:29;;;;;;;4.13;1.90;;;22.60;46.60;;;;;;6083424;23;20018;-65
2022/12/23 11:46:24;;;;;;;2.05;1.90;;;22.60;46.30;;;;;;6078354;23;20014;-63
2022/12/23 11:49:24;;;;;;;6.10;2.35;;;22.70;46.10;;;;;;6061955;23;20026;-64
2022/12/23 11:52:05;;;;;;;3.88;2.33;;;22.60;46.20;;;;;;6084331;23;20351;-63
2022/12/23 11:54:32;;;;;;;5.05;2.40;;;22.60;46.10;;;;;;6085164;23;20514;-62
2022/12/23 11:57:01;;;;;;;2.90;2.00;;;22.60;46.10;;;;;;6060229;23;20093;-62
2022/12/23 11:59:32;;;;;;;4.28;1.80;;;22.60;46.10;;;;;;6060800;23;20061;-63
2022/12/23 12:02:02;;;;;;;3.72;1.95;;;22.60;46.20;;;;;;6061191;23;20018;-67
2022/12/23 12:04:33;;;;;;;3.00;1.80;;;22.70;46.40;;;;;;6060252;23;20014;-62
2022/12/23 12:07:00;;;;;;;3.80;1.83;;;22.70;46.40;;;;;;6059829;23;20110;-62
2022/12/23 12:09:29;;;;;;;3.83;1.95;;;22.70;46.50;;;;;;6061366;23;20022;-62
2022/12/23 12:12:05;;;;;;;4.80;1.88;;;22.70;46.60;;;;;;6060736;23;20021;-62
2022/12/23 12:14:41;;;;;;;3.88;1.85;;;22.70;46.80;;;;;;6060181;23;20025;-62
2022/12/23 12:17:25;;;;;;;2.60;1.85;;;22.70;46.80;;;;;;6083838;23;20351;-63
2022/12/23 12:20:12;;;;;;;4.20;2.00;;;22.60;46.80;;;;;;6061006;23;20018;-62
2022/12/23 12:22:44;;;;;;;7.55;1.95;;;22.70;46.80;;;;;;6081819;23;20094;-63
2022/12/23 12:25:39;;;;;;;4.32;1.60;;;22.70;46.80;;;;;;6084051;23;20019;-63
2022/12/23 12:28:29;;;;;;;4.57;1.50;;;22.70;46.90;;;;;;6049845;23;20018;-62
2022/12/23 12:31:18;;;;;;;11.93;1.58;;;22.70;47.00;;;;;;6058759;23;20697;-62
2022/12/23 12:34:17;;;;;;;5.70;2.08;;;22.70;47.00;;;;;;6085700;23;20026;-62
2022/12/23 12:36:53;;;;;;;5.40;1.40;;;22.80;47.20;;;;;;6083957;23;20027;-62
2022/12/23 12:39:26;;;;;;;11.25;2.58;;;22.70;47.10;;;;;;6060553;23;20101;-64
2022/12/23 12:41:58;;;;;;;9.18;1.85;;;22.80;47.20;;;;;;6059742;23;20057;-62
2022/12/23 12:44:32;;;;;;;5.13;1.98;;;22.80;47.10;;;;;;6060025;23;20054;-62
2022/12/23 12:47:22;;;;;;;4.60;1.58;;;22.70;47.10;;;;;;6084404;23;20025;-60
2022/12/23 12:49:59;;;;;;;5.40;1.67;;;22.70;47.00;;;;;;6061924;23;20014;-61
2022/12/23 12:52:27;;;;;;;3.03;1.55;;;22.70;47.00;;;;;;6086484;23;20018;-60
2022/12/23 12:55:05;;;;;;;7.85;2.00;;;22.80;47.00;;;;;;6062409;23;20025;-61
2022/12/23 12:57:33;;;;;;;3.45;1.70;;;22.70;46.80;;;;;;6061078;23;20121;-63
2022/12/23 12:59:59;;;;;;;2.20;1.48;;;22.70;46.70;;;;;;6063592;23;20197;-61
2022/12/23 13:02:44;;;;;;;3.15;1.70;;;22.80;46.70;;;;;;6087664;23;20026;-62
2022/12/23 13:05:49;;;;;;;4.45;1.60;;;22.80;46.70;;;;;;6086518;23;20029;-63
2022/12/23 13:08:27;;;;;;;4.88;2.13;;;22.80;46.70;;;;;;5992864;23;20010;-63
2022/12/23 13:11:15;;;;;;;3.97;2.13;;;22.70;46.80;;;;;;6087094;23;20554;-64
2022/12/23 13:13:56;;;;;;;4.72;1.88;;;22.70;46.90;;;;;;6062211;23;20097;-63
2022/12/23 13:16:22;;;;;;;;;;;22.70;46.90;;;;;;6088120;23;20451;-62
2022/12/23 13:19:04;;;;;;;3.67;1.85;;;22.70;47.00;;;;;;6087638;23;19917;-63
2022/12/23 13:21:39;;;;;;;4.40;1.80;;;22.70;47.00;;;;;;6086963;23;20019;-63
2022/12/23 13:24:12;;;;;;;1.98;1.50;;;22.70;46.90;;;;;;6084934;23;20018;-61
2022/12/23 13:26:52;;;;;;;2.95;1.65;;;22.70;46.90;;;;;;6086499;23;20045;-62
2022/12/23 13:29:49;;;;;;;2.03;1.50;;;22.70;46.80;;;;;;6062165;23;20019;-62
2022/12/23 13:32:21;;;;;;;4.45;1.67;;;22.70;46.70;;;;;;6085646;23;20018;-62
2022/12/23 13:35:03;;;;;;;4.43;1.88;;;22.70;46.70;;;;;;6061441;23;20026;-64
2022/12/23 13:38:07;;;;;;;3.75;2.13;;;22.70;46.60;;;;;;6062580;23;20021;-62
2022/12/23 13:40:52;;;;;;;2.90;1.50;;;22.70;46.40;;;;;;6004328;23;20024;-63
2022/12/23 13:43:24;;;;;;;3.22;1.83;;;22.70;46.50;;;;;;6061351;23;20018;-64